createdAt,value
2023-02-13T00:00:19.972Z,0.50
2023-02-13T00:02:47.159Z,0.70
2023-02-13T00:05:13.912Z,0.57
2023-02-13T00:07:40.737Z,0.50
2023-02-13T00:10:08.344Z,0.57
2023-02-13T00:12:34.980Z,0.50
2023-02-13T00:15:01.741Z,0.60
2023-02-13T00:17:28.362Z,0.60
2023-02-13T00:19:54.965Z,0.50
2023-02-13T00:22:21.611Z,0.50
2023-02-13T00:24:48.227Z,0.70
2023-02-13T00:27:14.826Z,0.60
2023-02-13T00:29:41.555Z,0.70
2023-02-13T00:32:08.371Z,0.50
2023-02-13T00:34:35.096Z,0.60
2023-02-13T00:37:01.692Z,0.60
2023-02-13T00:39:28.411Z,0.60
2023-02-13T00:41:54.983Z,0.73
2023-02-13T00:44:21.575Z,0.52
2023-02-13T00:46:48.233Z,0.60
2023-02-13T00:49:14.925Z,0.70
2023-02-13T00:51:41.665Z,0.70
2023-02-13T00:54:08.248Z,0.50
2023-02-13T00:56:34.846Z,0.70
2023-02-13T00:59:01.496Z,0.60
2023-02-13T01:01:28.385Z,0.80
2023-02-13T01:03:55.010Z,0.80
2023-02-13T01:06:21.685Z,0.70
2023-02-13T01:08:48.263Z,0.63
2023-02-13T01:11:14.860Z,0.68
2023-02-13T01:13:41.459Z,0.70
2023-02-13T01:16:08.178Z,0.70
2023-02-13T01:18:34.815Z,0.60
2023-02-13T01:21:05.188Z,0.70
2023-02-13T01:23:35.107Z,0.70
2023-02-13T01:26:04.846Z,0.88
2023-02-13T01:28:31.712Z,0.68
2023-02-13T01:30:59.366Z,0.70
2023-02-13T01:33:27.964Z,0.65
2023-02-13T01:35:54.825Z,0.90
2023-02-13T01:38:21.743Z,0.90
2023-02-13T01:40:50.726Z,0.70
2023-02-13T01:43:17.998Z,0.60
2023-02-13T01:45:48.639Z,0.80
2023-02-13T01:48:33.016Z,0.82
2023-02-13T01:51:05.142Z,0.70
2023-02-13T01:53:49.625Z,0.80
2023-02-13T01:56:39.947Z,0.70
2023-02-13T01:59:12.296Z,0.80
2023-02-13T02:01:39.582Z,0.75
2023-02-13T02:04:13.710Z,0.80
2023-02-13T02:06:44.663Z,0.75
2023-02-13T02:09:16.073Z,0.70
2023-02-13T02:11:47.181Z,0.77
2023-02-13T02:14:13.759Z,0.80
2023-02-13T02:16:40.354Z,0.75
2023-02-13T02:19:16.005Z,0.60
2023-02-13T02:22:01.545Z,0.60
2023-02-13T02:24:53.980Z,0.60
2023-02-13T02:27:59.519Z,0.57
2023-02-13T02:30:47.775Z,0.70
2023-02-13T02:33:33.286Z,0.90
2023-02-13T02:36:17.337Z,0.60
2023-02-13T02:39:11.056Z,0.70
2023-02-13T02:41:56.296Z,0.80
2023-02-13T02:44:35.635Z,0.60
2023-02-13T02:47:28.647Z,0.70
2023-02-13T02:50:26.868Z,0.60
2023-02-13T02:53:17.546Z,0.77
2023-02-13T02:55:56.283Z,0.70
2023-02-13T02:58:49.251Z,0.60
2023-02-13T03:01:39.924Z,0.60
2023-02-13T03:04:29.407Z,0.50
2023-02-13T03:07:03.875Z,0.55
2023-02-13T03:09:54.728Z,0.60
2023-02-13T03:12:42.484Z,0.80
2023-02-13T03:15:10.216Z,0.60
2023-02-13T03:17:56.074Z,0.70
2023-02-13T03:20:57.248Z,0.60
2023-02-13T03:23:30.585Z,0.68
2023-02-13T03:26:03.647Z,0.60
2023-02-13T03:28:59.415Z,0.70
2023-02-13T03:31:49.580Z,0.50
2023-02-13T03:34:22.412Z,0.60
2023-02-13T03:37:25.807Z,0.50
2023-02-13T03:40:16.012Z,0.40
2023-02-13T03:42:48.743Z,0.50
2023-02-13T03:45:40.229Z,0.50
2023-02-13T03:48:32.093Z,0.40
2023-02-13T03:51:00.945Z,0.63
2023-02-13T03:53:30.407Z,0.40
2023-02-13T03:56:17.549Z,0.70
2023-02-13T03:59:09.089Z,0.50
2023-02-13T04:01:37.271Z,0.40
2023-02-13T04:04:27.171Z,0.50
2023-02-13T04:07:04.715Z,0.40
2023-02-13T04:09:33.934Z,0.40
2023-02-13T04:12:19.332Z,0.40
2023-02-13T04:14:48.613Z,0.40
2023-02-13T04:17:27.059Z,0.75
2023-02-13T04:19:53.688Z,0.40
2023-02-13T04:22:20.248Z,0.50
2023-02-13T04:24:47.263Z,0.70
2023-02-13T04:27:16.675Z,0.63
2023-02-13T04:29:43.526Z,0.50
2023-02-13T04:32:14.258Z,0.40
2023-02-13T04:34:40.820Z,0.40
2023-02-13T04:37:07.437Z,0.40
2023-02-13T04:39:35.018Z,0.40
2023-02-13T04:42:01.599Z,0.45
2023-02-13T04:44:28.255Z,0.40
2023-02-13T04:46:54.830Z,0.50
2023-02-13T04:49:21.597Z,0.40
2023-02-13T04:51:48.267Z,0.40
2023-02-13T04:54:14.960Z,0.40
2023-02-13T04:56:41.559Z,0.32
2023-02-13T04:59:08.192Z,0.50
2023-02-13T05:01:34.866Z,0.40
2023-02-13T05:04:01.535Z,0.40
2023-02-13T05:06:28.152Z,0.50
2023-02-13T05:08:54.788Z,0.40
2023-02-13T05:11:21.368Z,0.45
2023-02-13T05:13:47.914Z,0.40
2023-02-13T05:16:14.585Z,0.45
2023-02-13T05:18:41.221Z,0.40
2023-02-13T05:21:26.361Z,0.47
2023-02-13T05:23:52.941Z,0.40
2023-02-13T05:26:19.652Z,0.50
2023-02-13T05:29:05.065Z,0.50
2023-02-13T05:31:31.771Z,0.40
2023-02-13T05:33:58.395Z,0.43
2023-02-13T05:36:24.976Z,0.40
2023-02-13T05:38:51.552Z,0.47
2023-02-13T05:41:18.183Z,0.50
2023-02-13T05:43:44.778Z,0.50
2023-02-13T05:46:11.654Z,0.47
2023-02-13T05:48:38.311Z,0.50
2023-02-13T05:51:05.213Z,0.40
2023-02-13T05:53:35.216Z,0.50
2023-02-13T05:56:03.486Z,0.40
2023-02-13T05:58:30.233Z,0.40
2023-02-13T06:00:59.252Z,0.50
2023-02-13T06:03:28.152Z,0.40
2023-02-13T06:05:55.677Z,0.60
2023-02-13T06:08:23.213Z,0.40
2023-02-13T06:10:50.557Z,0.40
2023-02-13T06:13:17.646Z,0.50
2023-02-13T06:15:44.469Z,0.40
2023-02-13T06:18:11.537Z,0.40
2023-02-13T06:20:38.622Z,0.50
2023-02-13T06:23:05.377Z,0.50
2023-02-13T06:25:31.954Z,0.40
2023-02-13T06:27:58.544Z,0.40
2023-02-13T06:30:25.196Z,0.50
2023-02-13T06:32:51.876Z,0.50
2023-02-13T06:35:18.685Z,0.40
2023-02-13T06:37:45.650Z,0.52
2023-02-13T06:40:14.193Z,0.37
2023-02-13T06:42:43.001Z,0.40
2023-02-13T06:45:10.488Z,0.50
2023-02-13T06:47:41.594Z,0.55
2023-02-13T06:50:08.684Z,0.50
2023-02-13T06:52:36.035Z,0.70
2023-02-13T06:55:03.183Z,0.50
2023-02-13T06:57:33.077Z,0.80
2023-02-13T07:00:01.033Z,0.50
2023-02-13T07:02:27.748Z,0.57
2023-02-13T07:04:54.331Z,0.60
2023-02-13T07:07:20.925Z,0.50
2023-02-13T07:09:47.499Z,0.52
2023-02-13T07:12:14.110Z,0.50
2023-02-13T07:14:40.885Z,0.40
2023-02-13T07:17:07.558Z,0.43
2023-02-13T07:19:34.258Z,0.50
2023-02-13T07:22:00.892Z,0.50
2023-02-13T07:24:27.507Z,0.40
2023-02-13T07:26:54.108Z,0.65
2023-02-13T07:29:20.760Z,0.50
2023-02-13T07:31:47.377Z,0.45
2023-02-13T07:34:14.055Z,0.40
2023-02-13T07:36:40.634Z,0.40
2023-02-13T07:39:07.304Z,0.65
2023-02-13T07:41:33.904Z,0.50
2023-02-13T07:44:00.548Z,0.70
2023-02-13T07:46:27.153Z,0.60
2023-02-13T07:48:54.094Z,0.60
2023-02-13T07:51:20.785Z,0.50
2023-02-13T07:53:47.342Z,0.60
2023-02-13T07:56:13.921Z,0.50
2023-02-13T07:58:41.033Z,0.52
2023-02-13T08:01:12.378Z,0.50
2023-02-13T08:03:39.397Z,0.70
2023-02-13T08:06:06.891Z,0.50
2023-02-13T08:08:34.033Z,0.50
2023-02-13T08:11:25.600Z,0.55
2023-02-13T08:13:52.255Z,0.60
2023-02-13T08:16:18.926Z,0.50
2023-02-13T08:18:45.548Z,0.60
2023-02-13T08:21:12.190Z,0.50
2023-02-13T08:23:38.802Z,0.55
2023-02-13T08:26:05.421Z,0.50
2023-02-13T08:28:32.128Z,0.63
2023-02-13T08:30:58.779Z,0.40
2023-02-13T08:33:25.533Z,0.50
2023-02-13T08:35:52.105Z,0.50
2023-02-13T08:38:18.684Z,0.45
2023-02-13T08:40:45.251Z,0.40
2023-02-13T08:43:11.877Z,0.53
2023-02-13T08:45:38.582Z,0.60
2023-02-13T08:48:05.296Z,0.60
2023-02-13T08:50:32.306Z,0.50
2023-02-13T08:52:59.597Z,0.50
2023-02-13T08:55:27.478Z,0.50
2023-02-13T08:57:54.056Z,0.70
2023-02-13T09:00:21.146Z,0.60
2023-02-13T09:02:47.764Z,0.60
2023-02-13T09:05:14.461Z,0.40
2023-02-13T09:07:41.040Z,0.50
2023-02-13T09:10:08.025Z,0.60
2023-02-13T09:12:34.677Z,0.60
2023-02-13T09:15:01.340Z,0.50
2023-02-13T09:17:28.021Z,0.50
2023-02-13T09:19:54.613Z,0.50
2023-02-13T09:22:21.172Z,0.60
2023-02-13T09:24:47.749Z,0.50
2023-02-13T09:27:14.360Z,0.50
2023-02-13T09:29:40.982Z,0.60
2023-02-13T09:32:07.668Z,0.53
2023-02-13T09:34:34.430Z,0.40
2023-02-13T09:37:01.007Z,0.60
2023-02-13T09:39:27.597Z,0.60
2023-02-13T09:41:55.508Z,0.50
2023-02-13T09:44:34.419Z,0.50
2023-02-13T09:47:15.590Z,0.55
2023-02-13T09:49:46.977Z,0.43
2023-02-13T09:52:13.665Z,0.50
2023-02-13T09:54:40.281Z,0.70
2023-02-13T09:57:16.847Z,0.70
2023-02-13T10:00:13.133Z,0.40
2023-02-13T10:02:58.259Z,0.60
2023-02-13T10:06:02.047Z,0.50
2023-02-13T10:08:41.684Z,0.50
2023-02-13T10:11:29.735Z,0.53
2023-02-13T10:14:17.838Z,0.50
2023-02-13T10:17:21.871Z,0.60
2023-02-13T10:19:57.239Z,0.55
2023-02-13T10:22:59.907Z,0.50
2023-02-13T10:25:30.139Z,0.43
2023-02-13T10:28:07.331Z,0.50
2023-02-13T10:30:48.515Z,0.45
2023-02-13T10:33:30.070Z,0.50
2023-02-13T10:36:27.435Z,0.40
2023-02-13T10:39:28.744Z,0.60
2023-02-13T10:42:00.052Z,0.40
2023-02-13T10:45:03.502Z,0.40
2023-02-13T10:47:59.177Z,0.40
2023-02-13T10:50:31.595Z,0.40
2023-02-13T10:53:40.341Z,0.50
2023-02-13T10:56:26.995Z,0.70
2023-02-13T10:59:30.884Z,0.47
2023-02-13T11:02:11.657Z,0.43
2023-02-13T11:04:38.267Z,0.45
2023-02-13T11:07:11.558Z,0.40
2023-02-13T11:09:41.579Z,0.57
2023-02-13T11:12:29.967Z,0.50
2023-02-13T11:15:01.101Z,0.40
2023-02-13T11:17:31.679Z,0.50
2023-02-13T11:20:01.525Z,0.47
2023-02-13T11:22:44.062Z,0.45
2023-02-13T11:25:18.300Z,0.52
2023-02-13T11:27:47.258Z,0.57
2023-02-13T11:30:31.016Z,0.45
2023-02-13T11:33:04.359Z,0.50
2023-02-13T11:35:32.278Z,0.60
2023-02-13T11:38:10.657Z,0.50
2023-02-13T11:40:38.284Z,0.50
2023-02-13T11:43:15.843Z,0.50
2023-02-13T11:45:42.408Z,0.40
2023-02-13T11:48:19.823Z,0.30
2023-02-13T11:50:52.484Z,0.50
2023-02-13T11:53:23.603Z,0.40
2023-02-13T11:56:17.790Z,0.50
2023-02-13T11:58:44.543Z,0.50
2023-02-13T12:01:25.357Z,0.32
2023-02-13T12:04:06.634Z,0.40
2023-02-13T12:06:39.802Z,0.40
2023-02-13T12:09:15.364Z,0.40
2023-02-13T12:11:58.290Z,0.40
2023-02-13T12:14:28.753Z,0.43
2023-02-13T12:17:06.362Z,0.50
2023-02-13T12:19:42.362Z,0.57
2023-02-13T12:22:39.966Z,0.43
2023-02-13T12:25:28.799Z,0.50
2023-02-13T12:28:40.406Z,0.30
2023-02-13T12:31:51.547Z,0.55
2023-02-13T12:34:53.755Z,0.40
2023-02-13T12:37:59.962Z,0.50
2023-02-13T12:40:29.310Z,0.40
2023-02-13T12:43:01.864Z,0.40
2023-02-13T12:45:38.459Z,0.40
2023-02-13T12:48:46.040Z,0.45
2023-02-13T12:51:47.925Z,0.40
2023-02-13T12:54:39.494Z,0.50
2023-02-13T12:57:14.381Z,0.50
2023-02-13T12:59:40.932Z,0.50
2023-02-13T13:02:33.567Z,0.55
2023-02-13T13:05:19.639Z,0.50
2023-02-13T13:08:01.210Z,0.40
2023-02-13T13:10:57.314Z,0.40
2023-02-13T13:14:15.073Z,0.40
2023-02-13T13:17:13.697Z,0.43
2023-02-13T13:20:05.124Z,0.50
2023-02-13T13:22:45.057Z,0.40
2023-02-13T13:25:37.680Z,0.50
2023-02-13T13:28:50.866Z,0.60
2023-02-13T13:31:17.821Z,0.50
2023-02-13T13:33:47.187Z,0.40
2023-02-13T13:36:13.691Z,0.43
2023-02-13T13:38:51.879Z,0.40
2023-02-13T13:41:18.427Z,0.43
2023-02-13T13:43:53.756Z,0.50
2023-02-13T13:46:36.640Z,0.40
2023-02-13T13:49:37.115Z,0.40
2023-02-13T13:52:19.368Z,0.50
2023-02-13T13:54:51.490Z,0.50
2023-02-13T13:57:20.065Z,0.50
2023-02-13T13:59:51.490Z,0.50
2023-02-13T14:02:18.134Z,0.40
2023-02-13T14:05:09.749Z,0.40
2023-02-13T14:07:38.891Z,0.40
2023-02-13T14:10:06.399Z,0.47
2023-02-13T14:12:32.989Z,0.57
2023-02-13T14:15:00.578Z,0.30
2023-02-13T14:17:45.105Z,0.47
2023-02-13T14:20:23.106Z,0.40
2023-02-13T14:22:49.755Z,0.43
2023-02-13T14:25:24.888Z,0.50
2023-02-13T14:28:01.355Z,0.50
2023-02-13T14:30:35.647Z,0.60
2023-02-13T14:33:31.447Z,0.47
2023-02-13T14:36:23.104Z,0.50
2023-02-13T14:38:57.670Z,0.50
2023-02-13T14:41:51.696Z,0.50
2023-02-13T14:44:36.454Z,0.47
2023-02-13T14:47:18.257Z,0.50
2023-02-13T14:49:45.914Z,0.50
2023-02-13T14:52:19.281Z,0.50
2023-02-13T14:54:50.357Z,0.40
2023-02-13T14:57:25.419Z,0.40
2023-02-13T15:00:06.692Z,0.55
2023-02-13T15:02:44.633Z,0.40
2023-02-13T15:05:20.188Z,0.60
2023-02-13T15:07:50.662Z,0.40
2023-02-13T15:10:25.883Z,0.45
2023-02-13T15:13:00.895Z,0.50
2023-02-13T15:15:32.606Z,0.38
2023-02-13T15:18:09.605Z,0.50
2023-02-13T15:20:41.074Z,0.50
2023-02-13T15:23:09.540Z,0.50
2023-02-13T15:25:40.211Z,0.63
2023-02-13T15:28:15.306Z,0.50
2023-02-13T15:30:41.892Z,0.60
2023-02-13T15:33:20.763Z,0.50
2023-02-13T15:35:54.116Z,1.10
2023-02-13T15:38:24.783Z,0.73
2023-02-13T15:40:53.676Z,0.57
2023-02-13T15:43:31.148Z,0.70
2023-02-13T15:46:07.004Z,0.50
2023-02-13T15:48:35.326Z,0.60
2023-02-13T15:51:02.950Z,0.77
2023-02-13T15:53:30.460Z,0.80
2023-02-13T15:56:05.880Z,0.70
2023-02-13T15:58:35.010Z,0.60
2023-02-13T16:01:06.595Z,0.60
2023-02-13T16:03:35.293Z,0.52
2023-02-13T16:06:02.995Z,0.60
2023-02-13T16:08:40.631Z,0.60
2023-02-13T16:11:28.302Z,0.60
2023-02-13T16:14:27.355Z,0.50
2023-02-13T16:17:06.096Z,0.70
2023-02-13T16:19:50.993Z,0.60
2023-02-13T16:22:32.751Z,0.50
2023-02-13T16:25:21.564Z,0.50
2023-02-13T16:28:02.505Z,0.60
2023-02-13T16:30:53.945Z,0.60
2023-02-13T16:33:24.257Z,0.50
2023-02-13T16:35:57.036Z,0.60
2023-02-13T16:38:28.620Z,0.47
2023-02-13T16:40:57.825Z,0.50
2023-02-13T16:43:38.057Z,0.60
2023-02-13T16:46:19.785Z,0.50
2023-02-13T16:48:57.147Z,0.70
2023-02-13T16:51:29.583Z,0.60
2023-02-13T16:54:11.427Z,0.40
2023-02-13T16:56:47.986Z,0.60
2023-02-13T16:59:17.486Z,0.50
2023-02-13T17:01:44.328Z,0.55
2023-02-13T17:04:24.941Z,0.53
2023-02-13T17:06:55.691Z,0.60
2023-02-13T17:09:22.769Z,0.50
2023-02-13T17:11:53.371Z,0.50
2023-02-13T17:14:20.567Z,0.40
2023-02-13T17:16:48.564Z,0.70
2023-02-13T17:19:15.400Z,0.43
2023-02-13T17:21:42.422Z,0.60
2023-02-13T17:24:16.874Z,0.55
2023-02-13T17:26:43.931Z,0.65
2023-02-13T17:29:10.583Z,0.47
2023-02-13T17:31:37.569Z,0.45
2023-02-13T17:34:05.317Z,0.50
2023-02-13T17:36:31.949Z,0.63
2023-02-13T17:38:58.519Z,0.50
2023-02-13T17:41:25.120Z,0.50
2023-02-13T17:43:51.709Z,0.40
2023-02-13T17:46:18.506Z,0.80
2023-02-13T17:48:45.129Z,0.50
2023-02-13T17:51:14.879Z,0.52
2023-02-13T17:53:41.447Z,0.67
2023-02-13T17:56:08.030Z,0.68
2023-02-13T17:58:34.641Z,0.60
2023-02-13T18:01:01.641Z,0.50
2023-02-13T18:03:28.922Z,0.50
2023-02-13T18:05:55.600Z,0.70
2023-02-13T18:08:22.363Z,0.63
2023-02-13T18:10:49.154Z,0.40
2023-02-13T18:13:15.771Z,0.50
2023-02-13T18:15:44.492Z,0.60
2023-02-13T18:18:13.181Z,0.40
2023-02-13T18:20:39.796Z,0.85
2023-02-13T18:23:07.144Z,0.90
2023-02-13T18:25:34.227Z,0.50
2023-02-13T18:28:00.979Z,0.50
2023-02-13T18:30:28.106Z,0.60
2023-02-13T18:32:56.632Z,0.52
2023-02-13T18:35:23.301Z,0.52
2023-02-13T18:37:50.337Z,0.55
2023-02-13T18:40:17.814Z,0.60
2023-02-13T18:42:44.626Z,0.50
2023-02-13T18:45:12.211Z,0.50
2023-02-13T18:47:38.880Z,0.50
2023-02-13T18:50:06.114Z,0.68
2023-02-13T18:52:33.667Z,0.60
2023-02-13T18:55:00.318Z,0.53
2023-02-13T18:57:26.928Z,0.80
2023-02-13T18:59:53.519Z,0.50
2023-02-13T19:02:20.162Z,0.52
2023-02-13T19:04:46.785Z,0.50
2023-02-13T19:07:13.384Z,0.60
2023-02-13T19:09:40.432Z,0.57
2023-02-13T19:12:08.143Z,0.68
2023-02-13T19:14:34.951Z,0.73
2023-02-13T19:17:01.543Z,0.70
2023-02-13T19:19:28.299Z,0.60
2023-02-13T19:21:54.927Z,0.60
2023-02-13T19:24:21.587Z,0.60
2023-02-13T19:26:48.202Z,0.60
2023-02-13T19:29:14.808Z,0.75
2023-02-13T19:31:41.606Z,0.57
2023-02-13T19:34:08.296Z,0.50
2023-02-13T19:36:34.984Z,0.60
2023-02-13T19:39:04.179Z,0.70
2023-02-13T19:41:31.194Z,0.68
2023-02-13T19:43:58.496Z,0.50
2023-02-13T19:46:28.121Z,0.60
2023-02-13T19:48:55.113Z,0.60
2023-02-13T19:51:30.135Z,0.70
2023-02-13T19:54:05.165Z,0.68
2023-02-13T19:56:33.708Z,0.70
2023-02-13T19:59:00.275Z,0.60
2023-02-13T20:01:29.656Z,0.80
2023-02-13T20:03:56.763Z,0.68
2023-02-13T20:06:31.351Z,0.70
2023-02-13T20:09:01.769Z,0.60
2023-02-13T20:11:28.758Z,0.60
2023-02-13T20:13:57.427Z,0.70
2023-02-13T20:16:24.134Z,0.60
2023-02-13T20:18:50.942Z,0.60
2023-02-13T20:21:18.699Z,0.50
2023-02-13T20:23:50.467Z,0.60
2023-02-13T20:26:18.069Z,0.70
2023-02-13T20:28:46.642Z,0.60
2023-02-13T20:31:18.906Z,0.57
2023-02-13T20:33:46.449Z,0.60
2023-02-13T20:36:18.553Z,0.68
2023-02-13T20:38:45.585Z,0.65
2023-02-13T20:41:17.936Z,0.60
2023-02-13T20:43:45.166Z,1.00
2023-02-13T20:46:12.687Z,0.70
2023-02-13T20:48:40.293Z,0.65
2023-02-13T20:51:09.760Z,0.77
2023-02-13T20:53:36.334Z,0.80
2023-02-13T20:56:15.066Z,0.80
2023-02-13T20:58:43.383Z,0.80
2023-02-13T21:01:45.610Z,0.60
2023-02-13T21:04:14.685Z,0.70
2023-02-13T21:06:42.147Z,0.65
2023-02-13T21:09:09.732Z,0.60
2023-02-13T21:11:38.804Z,0.93
2023-02-13T21:14:06.047Z,0.80
2023-02-13T21:16:35.609Z,0.60
2023-02-13T21:19:06.747Z,0.60
2023-02-13T21:21:35.702Z,0.88
2023-02-13T21:24:08.311Z,0.80
2023-02-13T21:26:36.006Z,0.65
2023-02-13T21:29:02.918Z,0.80
2023-02-13T21:31:32.949Z,0.80
2023-02-13T21:34:05.415Z,0.60
2023-02-13T21:36:32.941Z,0.90
2023-02-13T21:39:00.720Z,0.93
2023-02-13T21:41:28.133Z,0.80
2023-02-13T21:43:54.884Z,0.75
2023-02-13T21:46:27.598Z,0.80
2023-02-13T21:48:56.602Z,1.00
2023-02-13T21:51:24.610Z,1.10
2023-02-13T21:53:51.915Z,0.90
2023-02-13T21:56:27.935Z,0.80
2023-02-13T21:58:54.704Z,0.85
2023-02-13T22:01:30.388Z,0.80
2023-02-13T22:04:00.983Z,0.82
2023-02-13T22:06:29.356Z,1.00
2023-02-13T22:09:01.548Z,0.90
2023-02-13T22:11:28.290Z,0.90
2023-02-13T22:14:03.016Z,0.80
2023-02-13T22:16:31.162Z,0.80
2023-02-13T22:18:58.096Z,0.90
2023-02-13T22:21:26.436Z,1.00
2023-02-13T22:23:53.461Z,0.80
2023-02-13T22:26:32.257Z,0.90
2023-02-13T22:29:01.633Z,0.80
2023-02-13T22:31:28.905Z,0.88
2023-02-13T22:34:03.278Z,0.88
2023-02-13T22:36:30.940Z,0.80
2023-02-13T22:38:58.238Z,0.90
2023-02-13T22:41:26.175Z,1.23
2023-02-13T22:43:53.539Z,0.80
2023-02-13T22:46:31.799Z,1.00
2023-02-13T22:48:59.517Z,0.82
2023-02-13T22:51:30.344Z,0.80
2023-02-13T22:53:58.066Z,0.90
2023-02-13T22:56:25.952Z,1.00
2023-02-13T22:58:52.636Z,0.70
2023-02-13T23:01:21.454Z,0.90
2023-02-13T23:03:48.307Z,0.73
2023-02-13T23:06:16.261Z,1.27
2023-02-13T23:08:43.515Z,0.80
2023-02-13T23:11:32.308Z,0.90
2023-02-13T23:13:59.427Z,0.85
2023-02-13T23:16:26.969Z,1.13
2023-02-13T23:18:55.901Z,0.93
2023-02-13T23:21:22.950Z,0.93
2023-02-13T23:23:49.682Z,1.30
2023-02-13T23:26:16.371Z,1.00
2023-02-13T23:28:43.332Z,1.00
2023-02-13T23:31:10.514Z,1.00
2023-02-13T23:33:37.170Z,1.20
2023-02-13T23:36:03.941Z,1.10
2023-02-13T23:38:30.664Z,1.27
2023-02-13T23:40:57.666Z,0.90
2023-02-13T23:43:24.493Z,1.17
2023-02-13T23:45:51.114Z,1.00
2023-02-13T23:48:17.669Z,0.93
2023-02-13T23:50:44.258Z,0.90
2023-02-13T23:53:10.847Z,0.90
2023-02-13T23:55:37.454Z,0.88
2023-02-13T23:58:04.027Z,1.13
